Time;durP1;ratioP1;P1;durP2;ratioP2;P2;SDS_P1;SDS_P2;PMS_P1;PMS_P2;Temp;Humidity;BMP_temperature;BMP_pressure;BME280_temperature;BME280_humidity;BME280_pressure;Samples;Min_cycle;Max_cycle;Signal;HPM_P1;HPM_P2
2023/04/11 00:02:17;;;;;;;2.42;1.30;;;9.20;99.90;;;-144.05;75.85;56889.19;5036423;28;20171;-82
2023/04/11 00:04:43;;;;;;;4.97;1.65;;;9.10;99.90;;;-144.05;75.82;56876.44;5055025;28;20571;-82
2023/04/11 00:07:09;;;;;;;3.90;1.35;;;9.10;99.90;;;-144.05;76.05;56889.19;5037103;28;20119;-81
2023/04/11 00:09:35;;;;;;;5.10;0.90;;;9.10;99.90;;;-144.05;75.82;56887.06;5036317;28;20489;-80
2023/04/11 00:12:01;;;;;;;4.22;1.83;;;9.20;99.90;;;-144.05;75.31;56906.19;5035574;28;20040;-81
2023/04/11 00:14:31;;;;;;;3.75;1.30;;;9.20;99.90;;;-144.05;74.79;56887.06;5052887;28;20114;-82
2023/04/11 00:16:59;;;;;;;5.47;1.30;;;9.20;99.90;;;-144.05;74.54;56872.19;5052560;28;20104;-82
2023/04/11 00:19:29;;;;;;;3.75;1.25;;;9.20;99.90;;;-144.05;74.51;56865.81;5034549;28;20140;-81
2023/04/11 00:21:57;;;;;;;2.53;1.48;;;9.20;99.90;;;-144.05;74.28;56882.81;5053449;28;20029;-81
2023/04/11 00:24:26;;;;;;;2.92;1.20;;;9.30;99.90;;;-144.05;73.79;56884.94;5040142;28;20029;-80
2023/04/11 00:26:53;;;;;;;4.35;1.35;;;9.20;99.90;;;-144.05;73.54;56893.44;5057855;28;20025;-84
2023/04/11 00:29:19;;;;;;;4.18;1.20;;;9.30;99.90;;;-144.05;73.71;56867.94;5061153;28;20027;-81
2023/04/11 00:31:45;;;;;;;6.53;1.08;;;9.30;99.90;;;-144.05;73.56;56867.94;5048467;28;20477;-81
2023/04/11 00:34:10;;;;;;;5.32;1.63;;;9.40;99.90;;;-144.05;73.23;56857.34;5060313;28;20391;-81
2023/04/11 00:36:36;;;;;;;4.22;1.38;;;9.40;99.90;;;-144.05;72.81;56867.94;5064809;28;20029;-82
2023/04/11 00:39:02;;;;;;;5.22;1.42;;;9.40;99.90;;;-144.05;72.94;56887.06;5067346;28;20029;-80
2023/04/11 00:41:28;;;;;;;3.97;1.38;;;9.40;99.90;;;-144.05;72.85;56878.56;5067306;28;20557;-80
2023/04/11 00:43:54;;;;;;;6.00;1.55;;;9.50;99.90;;;-144.05;72.28;56874.31;5058093;28;20108;-82
2023/04/11 00:46:21;;;;;;;6.25;1.40;;;9.60;99.90;;;-144.05;72.11;56867.94;5042887;28;20054;-82
2023/04/11 00:48:48;;;;;;;4.82;1.55;;;9.50;99.90;;;-144.05;71.99;56893.44;5059164;28;20078;-81
2023/04/11 00:51:15;;;;;;;8.93;1.55;;;9.50;99.90;;;-144.05;71.48;56893.44;5047223;28;20028;-80
2023/04/11 00:53:44;;;;;;;7.18;1.50;;;9.50;99.90;;;-144.05;71.65;56872.19;5060395;28;20104;-81
2023/04/11 00:56:11;;;;;;;7.65;1.75;;;9.60;99.90;;;-144.05;71.52;56884.94;5043231;28;20037;-81
2023/04/11 00:58:40;;;;;;;5.18;1.40;;;9.60;99.90;;;-144.05;71.20;56904.06;5060398;28;20029;-82
2023/04/11 01:01:10;;;;;;;6.72;1.60;;;9.70;99.90;;;-144.05;70.42;56874.31;5063571;28;20020;-81
2023/04/11 01:03:44;;;;;;;7.53;1.38;;;9.70;99.90;;;-144.05;70.66;56891.31;5062535;28;20028;-80
2023/04/11 01:06:15;;;;;;;13.07;1.90;;;9.80;99.90;;;-144.05;69.89;56882.81;5044904;28;20125;-82
2023/04/11 01:08:45;;;;;;;8.23;2.50;;;9.90;99.90;;;-144.05;69.56;56859.47;5045244;28;20029;-81
2023/04/11 01:11:16;;;;;;;9.70;2.63;;;9.80;99.90;;;-144.05;69.60;56904.06;5050003;28;20083;-81
2023/04/11 01:13:43;;;;;;;4.75;1.50;;;9.80;99.90;;;-144.05;69.60;56867.94;5059151;28;20088;-81
2023/04/11 01:16:10;;;;;;;10.98;2.15;;;9.80;99.90;;;-144.05;69.57;56887.06;5064346;28;20025;-81
2023/04/11 01:18:36;;;;;;;4.93;1.65;;;9.80;99.90;;;-144.05;68.93;56870.06;5065311;28;20074;-81
2023/04/11 01:21:03;;;;;;;10.05;2.35;;;9.80;99.90;;;-144.05;69.31;56878.56;5048078;28;20031;-84
2023/04/11 01:23:29;;;;;;;6.32;1.77;;;9.80;99.90;;;-144.05;68.35;56874.31;5065079;28;20035;-82
2023/04/11 01:25:56;;;;;;;6.95;1.80;;;9.70;99.90;;;-144.05;68.74;56882.81;5048097;28;20029;-82
2023/04/11 01:28:22;;;;;;;5.75;1.48;;;9.80;99.90;;;-144.05;69.46;56897.69;5046034;28;20049;-81
2023/04/11 01:30:48;;;;;;;10.55;2.50;;;9.80;99.90;;;-144.05;69.29;56891.31;5045979;28;20071;-82
2023/04/11 01:33:16;;;;;;;10.20;2.05;;;9.70;99.90;;;-144.05;69.07;56876.44;5062159;28;20294;-80
2023/04/11 01:35:42;;;;;;;6.47;1.85;;;9.80;99.90;;;-144.05;69.48;56887.06;5063411;28;20028;-82
2023/04/11 01:38:09;;;;;;;10.18;1.80;;;9.70;99.90;;;-144.05;69.19;56893.44;5064347;28;20021;-81
2023/04/11 01:40:37;;;;;;;8.57;1.38;;;9.70;99.90;;;-144.05;68.79;56870.06;5045223;28;20021;-82
2023/04/11 01:43:07;;;;;;;10.07;1.98;;;9.60;99.90;;;-144.05;68.72;56865.81;5065091;28;20052;-81
2023/04/11 01:45:33;;;;;;;8.55;1.77;;;9.60;99.90;;;-144.05;69.63;56878.56;5048455;28;20091;-81
2023/04/11 01:47:59;;;;;;;12.38;2.47;;;9.50;99.90;;;-144.05;69.65;56882.81;5064477;28;20029;-83
2023/04/11 01:50:25;;;;;;;9.00;2.45;;;9.40;99.90;;;-144.05;70.31;56882.81;5048607;28;20065;-81
2023/04/11 01:52:51;;;;;;;4.82;2.00;;;9.40;99.90;;;-144.05;69.69;56904.06;5047231;28;20033;-81
2023/04/11 01:55:17;;;;;;;9.57;2.15;;;9.30;99.90;;;-144.05;70.47;56884.94;5047220;28;20109;-82
2023/04/11 01:57:43;;;;;;;7.55;2.25;;;9.40;99.90;;;-144.05;69.70;56893.44;5048640;28;20025;-82
2023/04/11 02:00:10;;;;;;;8.38;2.45;;;9.40;99.90;;;-144.05;69.87;56874.31;5064728;28;20029;-82
2023/04/11 02:02:37;;;;;;;8.90;2.63;;;9.40;99.90;;;-144.05;70.10;56878.56;5044381;28;20029;-83
2023/04/11 02:05:04;;;;;;;11.90;2.85;;;9.40;99.90;;;-144.05;69.78;56889.19;5064086;28;20033;-82
2023/04/11 02:07:30;;;;;;;7.97;2.00;;;9.40;99.90;;;-144.05;70.15;56863.69;5064364;28;20088;-83
2023/04/11 02:09:57;;;;;;;10.50;2.10;;;9.30;99.90;;;-144.05;70.26;56876.44;5055846;28;20048;-82
2023/04/11 02:12:23;;;;;;;9.48;2.88;;;9.20;99.90;;;-144.05;70.85;56878.56;5052780;28;20052;-80
2023/04/11 02:14:49;;;;;;;13.40;3.22;;;9.30;99.90;;;-144.05;69.87;56895.56;5054693;28;20120;-83
2023/04/11 02:17:17;;;;;;;15.38;4.18;;;9.30;99.90;;;-144.05;69.97;56855.22;5057638;28;20053;-82
2023/04/11 02:19:44;;;;;;;13.63;3.28;;;9.30;99.90;;;-144.05;70.37;56865.81;5042106;28;20051;-82
2023/04/11 02:22:12;;;;;;;15.25;3.88;;;9.40;99.90;;;-144.05;69.74;56874.31;5058848;28;20049;-81
2023/04/11 02:24:39;;;;;;;15.70;4.30;;;9.40;99.90;;;-144.05;69.69;56895.56;5057987;28;20087;-83
2023/04/11 02:27:06;;;;;;;16.17;3.20;;;9.30;99.90;;;-144.05;68.91;56908.31;5059691;28;20029;-81
2023/04/11 02:29:33;;;;;;;13.88;4.07;;;9.30;99.90;;;-144.05;69.10;56865.81;5042716;28;20055;-81
2023/04/11 02:31:59;;;;;;;16.63;4.55;;;9.20;99.90;;;-144.05;69.77;56893.44;5042641;28;20052;-81
2023/04/11 02:34:25;;;;;;;15.13;3.60;;;9.10;99.90;;;-144.05;69.86;56878.56;5044341;28;20033;-81
2023/04/11 02:36:52;;;;;;;14.30;3.70;;;9.20;99.90;;;-144.05;70.07;56872.19;5059191;28;20031;-83
2023/04/11 02:39:25;;;;;;;19.50;4.22;;;9.20;99.90;;;-144.05;69.78;56876.44;5059157;28;20021;-81
2023/04/11 02:41:51;;;;;;;15.30;3.88;;;9.20;99.90;;;-144.05;69.27;56895.56;5060178;28;20088;-81
2023/04/11 02:44:18;;;;;;;19.98;4.68;;;9.30;99.90;;;-144.05;68.89;56870.06;5044151;28;20532;-80
2023/04/11 02:46:44;;;;;;;19.63;4.82;;;9.20;99.90;;;-144.05;69.67;56870.06;5058294;28;20396;-81
2023/04/11 02:49:10;;;;;;;22.83;4.85;;;9.10;99.90;;;-144.05;70.14;56874.31;5058931;28;20025;-81
2023/04/11 02:51:36;;;;;;;15.18;4.32;;;9.10;99.90;;;-144.05;68.77;56867.94;5043012;28;20031;-82
2023/04/11 02:54:02;;;;;;;19.23;6.03;;;9.20;99.90;;;-144.05;68.99;56870.06;5047873;28;20387;-80
2023/04/11 02:56:33;;;;;;;21.25;4.75;;;9.10;99.90;;;-144.05;68.91;56887.06;5045084;28;20040;-81
2023/04/11 02:58:59;;;;;;;18.50;5.03;;;9.10;99.90;;;-144.05;68.61;56882.81;5044984;28;20025;-82
2023/04/11 03:01:25;;;;;;;19.73;5.18;;;9.10;99.90;;;-144.05;68.96;56872.19;5046344;28;20033;-80
2023/04/11 03:03:52;;;;;;;20.52;4.97;;;9.00;99.90;;;-144.05;68.37;56874.31;5060501;28;20051;-82
2023/04/11 03:06:18;;;;;;;20.00;4.68;;;9.00;99.90;;;-144.05;69.18;56882.81;5039658;28;20032;-81
2023/04/11 03:08:45;;;;;;;24.13;4.93;;;8.90;99.90;;;-144.05;69.31;56882.81;5056616;28;20036;-82
2023/04/11 03:11:11;;;;;;;18.20;5.40;;;8.90;99.90;;;-144.05;69.00;56901.94;5057438;28;20051;-81
2023/04/11 03:13:38;;;;;;;19.17;4.88;;;8.80;99.90;;;-144.05;69.19;56878.56;5057942;28;20041;-82
2023/04/11 03:16:05;;;;;;;23.42;5.57;;;8.90;99.90;;;-144.05;69.56;56891.31;5069688;28;20028;-81
2023/04/11 03:18:31;;;;;;;16.27;3.97;;;8.90;99.90;;;-144.05;68.74;56884.94;5066345;28;20035;-81
2023/04/11 03:20:57;;;;;;;16.67;4.72;;;8.80;99.90;;;-144.05;69.07;56870.06;5055716;28;20073;-79
2023/04/11 03:23:23;;;;;;;20.00;4.53;;;8.80;99.90;;;-144.05;68.94;56889.19;5056928;28;20094;-81
2023/04/11 03:25:49;;;;;;;19.17;4.45;;;8.80;99.90;;;-144.05;68.84;56880.69;5055159;28;20036;-81
2023/04/11 03:28:15;;;;;;;20.02;5.03;;;8.80;99.90;;;-144.05;69.32;56872.19;5055265;28;20028;-81
2023/04/11 03:30:42;;;;;;;16.83;4.32;;;8.70;99.90;;;-144.05;69.48;56897.69;5055635;28;20029;-80
2023/04/11 03:33:08;;;;;;;23.45;4.93;;;8.70;99.90;;;-144.05;69.36;56882.81;5054671;28;20233;-81
2023/04/11 03:35:35;;;;;;;16.73;5.50;;;8.70;99.90;;;-144.05;68.79;56878.56;5036167;28;20052;-80
2023/04/11 03:38:02;;;;;;;18.75;4.70;;;8.70;99.90;;;-144.05;68.76;56891.31;5054570;28;20028;-80
2023/04/11 03:40:28;;;;;;;22.05;4.55;;;8.70;99.90;;;-144.05;68.93;56867.94;5035976;28;20025;-81
2023/04/11 03:42:55;;;;;;;18.75;5.25;;;8.80;99.90;;;-144.05;68.75;56870.06;5053841;28;20094;-80
2023/04/11 03:45:21;;;;;;;17.85;3.90;;;8.70;99.90;;;-144.05;69.17;56887.06;5053407;28;20037;-80
2023/04/11 03:47:46;;;;;;;21.83;4.72;;;8.70;99.90;;;-144.05;68.84;56887.06;5035665;28;20082;-81
2023/04/11 03:50:12;;;;;;;15.75;4.47;;;8.80;99.90;;;-144.05;69.40;56870.06;5053550;28;20039;-80
2023/04/11 03:52:38;;;;;;;24.02;6.22;;;8.80;99.90;;;-144.05;69.39;56878.56;5054635;28;20039;-81
2023/04/11 03:55:05;;;;;;;20.13;4.40;;;8.80;99.90;;;-144.05;69.43;56912.56;5053047;28;20547;-80
2023/04/11 03:57:31;;;;;;;23.45;5.15;;;8.80;99.90;;;-144.05;69.27;56895.56;5037212;28;20163;-80
2023/04/11 03:59:58;;;;;;;29.92;4.93;;;8.70;99.90;;;-144.05;69.26;56897.69;5052988;28;20071;-81
2023/04/11 04:02:24;;;;;;;20.20;4.45;;;8.70;99.90;;;-144.05;68.66;56872.19;5053360;28;20111;-81
2023/04/11 04:04:57;;;;;;;18.00;4.95;;;8.70;99.90;;;-144.05;69.33;56887.06;5053322;28;20108;-82
2023/04/11 04:07:24;;;;;;;16.15;4.30;;;8.70;99.90;;;-144.05;70.08;56893.44;5053231;28;20078;-81
2023/04/11 04:09:52;;;;;;;17.88;4.78;;;8.70;99.90;;;-144.05;70.31;56867.94;5053534;28;20029;-81
2023/04/11 04:12:20;;;;;;;15.57;3.97;;;8.70;99.90;;;-144.05;69.88;56874.31;5053200;28;20495;-82
2023/04/11 04:14:47;;;;;;;23.10;4.90;;;8.70;99.90;;;-144.05;69.68;56878.56;5053562;28;20036;-82
2023/04/11 04:17:15;;;;;;;24.50;6.15;;;8.70;99.90;;;-144.05;68.74;56870.06;5053511;28;20047;-83
2023/04/11 04:19:44;;;;;;;19.30;4.88;;;8.70;99.90;;;-144.05;69.46;56897.69;5035682;28;20036;-83
2023/04/11 04:22:12;;;;;;;17.30;5.20;;;8.60;99.90;;;-144.05;68.55;56895.56;5054106;28;20100;-82
2023/04/11 04:24:40;;;;;;;19.42;4.68;;;8.60;99.90;;;-144.05;68.49;56882.81;5052165;28;20507;-83
2023/04/11 04:27:08;;;;;;;24.52;4.57;;;8.60;99.90;;;-144.05;68.08;56878.56;5053152;28;20110;-81
2023/04/11 04:29:37;;;;;;;20.00;5.05;;;8.60;99.90;;;-144.05;67.67;56908.31;5053490;28;20040;-81
2023/04/11 04:32:11;;;;;;;29.98;5.68;;;8.60;99.90;;;-144.05;67.86;56884.94;5053746;28;20025;-83
2023/04/11 04:34:54;;;;;;;21.17;5.45;;;8.50;99.90;;;-144.05;68.49;56908.31;5035437;28;20064;-82
2023/04/11 04:37:23;;;;;;;15.30;5.03;;;8.50;99.90;;;-144.05;68.40;56870.06;5035598;28;20543;-83
2023/04/11 04:40:06;;;;;;;22.00;5.32;;;8.60;99.90;;;-144.05;68.67;56861.56;5054881;28;20025;-81
2023/04/11 04:42:33;;;;;;;19.70;4.85;;;8.60;99.90;;;-144.05;68.85;56882.81;5054908;28;20025;-82
2023/04/11 04:44:59;;;;;;;22.25;5.60;;;8.60;99.90;;;-144.05;67.80;56870.06;5053913;28;20033;-81
2023/04/11 04:47:32;;;;;;;22.83;5.60;;;8.70;99.90;;;-144.05;67.58;56910.44;5053534;28;20079;-82
2023/04/11 04:49:59;;;;;;;24.48;4.88;;;8.60;99.90;;;-144.05;68.58;56904.06;5053476;28;20414;-80
2023/04/11 04:52:28;;;;;;;29.52;6.50;;;8.50;99.90;;;-144.05;67.90;56874.31;5035464;28;20029;-80
2023/04/11 04:54:58;;;;;;;25.77;5.72;;;8.50;99.90;;;-144.05;68.03;56893.44;5035912;28;20040;-81
2023/04/11 04:57:30;;;;;;;29.10;6.25;;;8.50;99.90;;;-144.05;68.55;56895.56;5053358;28;20027;-81
2023/04/11 04:59:57;;;;;;;28.75;5.70;;;8.50;99.90;;;-144.05;67.87;56882.81;5035050;28;20505;-81
2023/04/11 05:02:26;;;;;;;17.45;5.20;;;8.50;99.90;;;-144.05;67.25;56891.31;5035671;28;20472;-82
2023/04/11 05:04:53;;;;;;;19.52;5.88;;;8.50;99.90;;;-144.05;66.54;56889.19;5054900;28;20153;-82
2023/04/11 05:07:19;;;;;;;14.88;4.90;;;8.50;99.90;;;-144.05;66.15;56872.19;5054380;28;20108;-82
2023/04/11 05:09:46;;;;;;;23.20;5.50;;;8.50;99.90;;;-144.05;66.00;56893.44;5038055;28;20057;-80
2023/04/11 05:12:14;;;;;;;16.52;5.22;;;8.60;99.90;;;-144.05;65.04;56901.94;5057021;28;20025;-82
2023/04/11 05:14:41;;;;;;;19.20;5.55;;;8.60;99.90;;;-144.05;64.92;56889.19;5038584;28;20040;-83
2023/04/11 05:17:07;;;;;;;15.48;4.97;;;8.60;99.90;;;-144.05;64.53;56889.19;5061730;28;20005;-83
2023/04/11 05:19:33;;;;;;;15.43;5.55;;;8.50;99.90;;;-144.05;64.23;56906.19;5052451;28;20021;-82
2023/04/11 05:21:59;;;;;;;27.55;5.93;;;8.50;99.90;;;-144.05;64.42;56904.06;5044384;28;20036;-82
2023/04/11 05:24:25;;;;;;;19.67;5.82;;;8.50;99.90;;;-144.05;64.30;56884.94;5058094;28;20088;-81
2023/04/11 05:26:51;;;;;;;24.67;5.15;;;8.50;99.90;;;-144.05;64.59;56882.81;5056866;28;20029;-81
2023/04/11 05:29:17;;;;;;;15.98;4.95;;;8.60;99.90;;;-144.05;64.94;56874.31;5038430;28;20021;-80
2023/04/11 05:31:42;;;;;;;21.55;5.47;;;8.50;99.90;;;-144.05;64.61;56878.56;5039197;28;20059;-82
2023/04/11 05:34:08;;;;;;;18.60;4.68;;;8.60;99.90;;;-144.05;64.29;56874.31;5042394;28;20079;-80
2023/04/11 05:36:35;;;;;;;18.75;5.07;;;8.60;99.90;;;-144.05;63.77;56901.94;5079081;28;20048;-78
2023/04/11 05:39:02;;;;;;;15.88;3.90;;;8.60;99.90;;;-144.05;63.48;56906.19;5057791;28;20041;-78
2023/04/11 05:41:28;;;;;;;12.98;4.40;;;8.60;99.90;;;-144.05;63.68;56884.94;5056831;28;20021;-77
2023/04/11 05:43:54;;;;;;;21.58;4.35;;;8.50;99.90;;;-144.05;63.75;56908.31;5056814;28;20463;-78
2023/04/11 05:46:20;;;;;;;15.95;4.63;;;8.50;99.90;;;-144.05;64.51;56884.94;5059593;28;20040;-78
2023/04/11 05:48:46;;;;;;;12.68;4.63;;;8.50;99.90;;;-144.05;63.42;56897.69;5057521;28;20064;-79
2023/04/11 05:51:12;;;;;;;13.57;4.72;;;8.50;99.90;;;-144.05;63.47;56867.94;5057291;28;20033;-78
2023/04/11 05:53:38;;;;;;;11.07;3.65;;;8.50;99.90;;;-144.05;64.62;56882.81;5039241;28;20021;-78
2023/04/11 05:56:04;;;;;;;20.73;4.50;;;8.60;99.90;;;-144.05;64.06;56870.06;5058244;28;20025;-77
2023/04/11 05:58:30;;;;;;;18.27;4.88;;;8.60;99.90;;;-144.05;63.80;56887.06;5057421;28;20378;-77
2023/04/11 06:00:58;;;;;;;16.40;4.13;;;8.60;99.90;;;-144.05;63.77;56893.44;5057070;28;20024;-77
2023/04/11 06:03:25;;;;;;;14.50;4.10;;;8.60;99.90;;;-144.05;63.58;56865.81;5039267;28;20044;-78
2023/04/11 06:05:51;;;;;;;17.35;3.70;;;8.70;99.90;;;-144.05;63.24;56865.81;5057487;28;20491;-79
2023/04/11 06:08:17;;;;;;;16.55;4.15;;;8.80;99.90;;;-144.05;62.33;56908.31;5039097;28;20040;-79
2023/04/11 06:10:43;;;;;;;20.52;4.55;;;8.90;99.90;;;-144.05;61.75;56904.06;5058314;28;20033;-78
2023/04/11 06:13:09;;;;;;;14.38;3.92;;;9.00;99.90;;;-144.05;61.91;56878.56;5040486;28;20055;-79
2023/04/11 06:15:35;;;;;;;18.17;3.92;;;9.10;99.90;;;-144.05;60.63;56882.81;5059964;28;20029;-81
2023/04/11 06:18:01;;;;;;;21.95;4.15;;;9.30;99.90;;;-144.05;59.37;56891.31;5078248;28;20021;-82
2023/04/11 06:20:27;;;;;;;15.20;3.85;;;9.40;99.90;;;-144.05;59.06;56876.44;5060808;28;20037;-82
2023/04/11 06:22:53;;;;;;;17.77;3.20;;;9.40;99.90;;;-144.05;59.99;56867.94;5041249;28;20029;-80
2023/04/11 06:25:20;;;;;;;20.65;4.20;;;9.20;99.90;;;-144.05;60.03;56887.06;5056239;28;20525;-80
2023/04/11 06:27:47;;;;;;;15.90;4.32;;;9.10;99.90;;;-144.05;60.28;56880.69;5053816;28;20530;-80
2023/04/11 06:30:14;;;;;;;17.67;4.18;;;9.10;99.90;;;-144.05;60.15;56874.31;5054633;28;20108;-81
2023/04/11 06:32:40;;;;;;;15.02;3.47;;;8.90;99.90;;;-144.05;59.68;56878.56;5053783;28;20039;-80
2023/04/11 06:35:06;;;;;;;18.50;4.50;;;8.90;99.90;;;-144.05;60.10;56891.31;5055669;28;20033;-79
2023/04/11 06:37:32;;;;;;;13.38;4.47;;;8.90;99.90;;;-144.05;59.90;56853.09;5057977;28;20031;-79
2023/04/11 06:39:59;;;;;;;18.13;4.47;;;8.80;99.90;;;-144.05;59.18;56887.06;5055198;28;20033;-81
2023/04/11 06:42:26;;;;;;;25.00;4.97;;;8.90;99.90;;;-144.05;59.58;56884.94;5054883;28;20036;-81
2023/04/11 06:44:52;;;;;;;24.40;4.45;;;9.00;99.90;;;-144.05;59.69;56904.06;5053891;28;20086;-79
2023/04/11 06:47:18;;;;;;;21.20;8.32;;;8.90;99.90;;;-144.05;59.46;56870.06;5054596;28;20035;-79
2023/04/11 06:49:44;;;;;;;16.27;4.32;;;9.00;99.90;;;-144.05;59.23;56891.31;5055907;28;20036;-80
2023/04/11 06:52:10;;;;;;;12.75;5.20;;;8.90;99.90;;;-144.05;58.95;56887.06;5054796;28;20039;-79
2023/04/11 06:54:36;;;;;;;11.00;3.58;;;9.10;99.90;;;-144.05;58.62;56880.69;5038406;28;20473;-80
2023/04/11 06:57:02;;;;;;;19.45;4.57;;;9.10;99.90;;;-144.05;57.78;56887.06;5056762;28;20044;-81
2023/04/11 06:59:28;;;;;;;14.95;4.60;;;9.20;99.90;;;-144.05;57.08;56914.69;5037987;28;20392;-82
2023/04/11 07:01:54;;;;;;;15.90;4.20;;;9.40;99.90;;;-144.05;55.72;56916.81;5037742;28;20595;-83
2023/04/11 07:04:20;;;;;;;17.35;4.43;;;9.60;99.90;;;-144.05;54.71;56861.56;5056379;28;20540;-80
2023/04/11 07:06:46;;;;;;;15.52;4.25;;;9.80;99.90;;;-144.05;55.19;56878.56;5055021;28;20129;-81
2023/04/11 07:09:12;;;;;;;20.98;4.18;;;9.90;99.90;;;-144.05;55.10;56878.56;5054891;28;20124;-80
2023/04/11 07:11:38;;;;;;;18.00;4.70;;;9.80;99.90;;;-144.05;55.11;56884.94;5056230;28;20025;-81
2023/04/11 07:14:04;;;;;;;14.13;4.28;;;9.70;99.90;;;-144.05;53.59;56876.44;5056560;28;20111;-82
2023/04/11 07:16:30;;;;;;;14.18;4.10;;;9.80;99.90;;;-144.05;53.46;56867.94;5056736;28;20174;-82
2023/04/11 07:18:57;;;;;;;16.83;5.30;;;9.90;99.90;;;-144.05;53.29;56870.06;5057944;28;20418;-82
2023/04/11 07:21:29;;;;;;;15.02;4.40;;;9.80;99.90;;;-144.05;54.25;56870.06;5058934;28;20077;-79
2023/04/11 07:23:55;;;;;;;18.83;5.50;;;9.70;99.90;;;-144.05;54.01;56895.56;5055614;28;20094;-82
2023/04/11 07:26:22;;;;;;;33.95;15.00;;;9.70;99.90;;;-144.05;53.91;56910.44;5055428;28;20032;-81
2023/04/11 07:28:50;;;;;;;53.42;29.38;;;9.80;99.90;;;-144.05;53.52;56865.81;5059397;28;20099;-81
2023/04/11 07:31:18;;;;;;;11.15;4.82;;;9.80;99.90;;;-144.05;51.48;56865.81;5056897;28;20021;-81
2023/04/11 07:33:44;;;;;;;11.80;2.92;;;10.00;99.90;;;-144.05;49.77;56870.06;5059548;28;20079;-81
2023/04/11 07:36:10;;;;;;;10.23;3.00;;;10.20;99.90;;;-144.05;49.26;56897.69;5058213;28;20025;-81
2023/04/11 07:38:36;;;;;;;13.02;3.60;;;10.50;99.90;;;-144.05;48.58;56887.06;5056456;28;20056;-81
2023/04/11 07:41:04;;;;;;;16.67;2.65;;;10.50;99.90;;;-144.05;49.21;56878.56;5057148;28;20028;-78
2023/04/11 07:43:31;;;;;;;13.40;3.40;;;10.30;99.90;;;-144.05;50.44;56878.56;5055574;28;20047;-80
2023/04/11 07:45:58;;;;;;;18.52;6.15;;;10.10;99.90;;;-144.05;50.46;56880.69;5037554;28;20028;-80
2023/04/11 07:48:30;;;;;;;16.15;3.80;;;10.00;99.90;;;-144.05;49.79;56870.06;5041522;28;20025;-80
2023/04/11 07:50:56;;;;;;;13.50;3.15;;;10.50;99.90;;;-144.05;47.70;56867.94;5044365;28;20070;-80
2023/04/11 07:53:23;;;;;;;13.95;4.32;;;11.10;99.90;;;-144.05;46.42;56884.94;5058979;28;20075;-79
2023/04/11 07:55:49;;;;;;;15.35;8.52;;;11.40;99.90;;;-144.05;45.77;56867.94;5058714;28;20028;-81
2023/04/11 07:58:15;;;;;;;14.02;3.10;;;11.00;99.90;;;-144.05;47.60;56878.56;5041259;28;20374;-80
2023/04/11 08:00:41;;;;;;;9.45;2.45;;;10.70;99.90;;;-144.05;48.78;56855.22;5039890;28;20028;-79
2023/04/11 08:03:09;;;;;;;15.23;5.28;;;10.50;99.90;;;-144.05;47.48;56857.34;5058285;28;20465;-79
2023/04/11 08:05:36;;;;;;;15.40;3.65;;;10.70;99.90;;;-144.05;47.67;56853.09;5059036;28;20450;-81
2023/04/11 08:08:06;;;;;;;16.83;3.10;;;10.90;99.90;;;-144.05;47.16;56857.34;5059351;28;20040;-80
2023/04/11 08:10:33;;;;;;;9.82;2.65;;;11.00;99.90;;;-144.05;47.75;56861.56;5041233;28;20044;-83
2023/04/11 08:12:59;;;;;;;13.57;3.00;;;11.00;99.90;;;-144.05;46.46;56857.34;5060088;28;20033;-79
2023/04/11 08:15:25;;;;;;;15.35;3.00;;;11.50;99.90;;;-144.05;44.87;56876.44;5042295;28;20029;-81
2023/04/11 08:17:55;;;;;;;13.63;3.25;;;11.90;99.90;;;-144.05;45.14;56857.34;5061338;28;20033;-81
2023/04/11 08:20:23;;;;;;;11.38;2.92;;;11.70;99.90;;;-144.05;46.82;56887.06;5045117;28;20025;-78
2023/04/11 08:22:49;;;;;;;10.20;3.42;;;11.20;99.90;;;-144.05;47.60;56878.56;5065655;28;20025;-80
2023/04/11 08:25:18;;;;;;;10.00;2.88;;;11.00;99.90;;;-144.05;48.70;56870.06;5063840;28;20032;-79
2023/04/11 08:27:44;;;;;;;7.97;2.67;;;10.70;99.90;;;-144.05;49.03;56874.31;5043152;28;20067;-79
2023/04/11 08:30:11;;;;;;;11.27;3.38;;;10.90;99.90;;;-144.05;47.69;56882.81;5045173;28;20033;-79
2023/04/11 08:32:37;;;;;;;5.93;3.25;;;11.10;99.90;;;-144.05;46.26;56882.81;5063554;28;20028;-80
2023/04/11 08:35:04;;;;;;;11.20;2.97;;;11.20;99.90;;;-144.05;46.65;56893.44;5044432;28;20025;-79
2023/04/11 08:37:30;;;;;;;12.25;2.50;;;10.90;99.90;;;-144.05;47.91;56872.19;5044282;28;20025;-80
2023/04/11 08:39:57;;;;;;;10.13;2.80;;;10.70;99.90;;;-144.05;46.92;56844.59;5043782;28;20025;-79
2023/04/11 08:42:30;;;;;;;10.32;3.13;;;11.20;99.90;;;-144.05;46.30;56870.06;5062252;28;20056;-81
2023/04/11 08:45:07;;;;;;;13.20;2.50;;;11.70;99.90;;;-144.05;44.62;56876.44;5049515;28;20025;-82
2023/04/11 08:47:35;;;;;;;11.15;2.72;;;11.90;99.90;;;-144.05;44.03;56850.97;5046903;28;20025;-81
2023/04/11 08:50:02;;;;;;;14.55;2.50;;;12.00;99.90;;;-144.05;43.44;56889.19;5047547;28;20127;-81
2023/04/11 08:52:31;;;;;;;10.52;2.45;;;11.70;99.90;;;-144.05;45.19;56846.72;5068708;28;20044;-81
2023/04/11 08:54:57;;;;;;;8.85;2.75;;;11.50;99.90;;;-144.05;43.85;56859.47;5067916;28;20088;-79
2023/04/11 08:57:30;;;;;;;11.52;2.40;;;11.90;99.90;;;-144.05;43.12;56891.31;5064712;28;20071;-80
2023/04/11 09:00:15;;;;;;;13.32;2.55;;;11.60;99.90;;;-144.05;44.28;56863.69;5076062;28;20001;-79
2023/04/11 09:03:00;;;;;;;9.90;2.35;;;11.40;99.90;;;-144.05;43.26;56876.44;5065272;28;20021;-80
2023/04/11 09:05:36;;;;;;;9.10;2.45;;;11.40;99.90;;;-144.05;43.43;56861.56;5061477;28;20033;-80
2023/04/11 09:08:13;;;;;;;9.43;2.22;;;11.60;99.90;;;-144.05;42.63;56867.94;5062120;28;20029;-80
2023/04/11 09:10:44;;;;;;;10.50;1.80;;;11.50;99.90;;;-144.05;42.76;56874.31;5043129;28;20029;-81
2023/04/11 09:13:21;;;;;;;10.32;2.75;;;11.90;99.90;;;-144.05;41.08;56855.22;5064646;28;20036;-80
2023/04/11 09:16:02;;;;;;;6.35;1.67;;;12.20;99.90;;;-144.05;41.01;56844.59;5070592;28;20059;-80
2023/04/11 09:18:37;;;;;;;11.98;2.20;;;12.80;99.90;;;-144.05;39.58;56857.34;5050373;28;20056;-80
2023/04/11 09:21:08;;;;;;;7.18;1.98;;;13.40;99.90;;;-144.05;40.67;56857.34;5063260;28;20040;-82
2023/04/11 09:23:36;;;;;;;5.55;1.80;;;13.10;99.90;;;-144.05;40.08;56853.09;5044234;28;20032;-82
2023/04/11 09:26:10;;;;;;;5.32;1.98;;;13.50;99.90;;;-144.05;38.04;56870.06;5059045;28;20108;-80
2023/04/11 09:28:53;;;;;;;12.07;2.33;;;13.60;99.90;;;-144.05;38.01;56882.81;5031610;28;20048;-79
2023/04/11 09:31:20;;;;;;;7.15;1.70;;;14.00;99.90;;;-144.05;37.26;56882.81;5064828;28;20025;-79
2023/04/11 09:33:58;;;;;;;5.93;1.67;;;13.90;99.90;;;-144.05;38.28;56865.81;5067140;28;20033;-79
2023/04/11 09:36:29;;;;;;;8.05;2.15;;;13.30;99.90;;;-144.05;38.51;56853.09;5045050;28;20036;-80
2023/04/11 09:38:56;;;;;;;10.35;2.08;;;12.80;99.90;;;-144.05;38.48;56867.94;5045811;28;20032;-80
2023/04/11 09:41:35;;;;;;;9.73;2.35;;;12.90;99.90;;;-144.05;37.82;56859.47;5065702;28;20025;-79
2023/04/11 09:44:01;;;;;;;6.03;1.48;;;13.20;99.90;;;-144.05;37.72;56891.31;5046209;28;20021;-79
2023/04/11 09:46:27;;;;;;;10.20;1.98;;;13.10;99.90;;;-144.05;36.92;56872.19;5047613;28;20025;-80
2023/04/11 09:48:55;;;;;;;11.00;2.22;;;13.40;99.90;;;-144.05;37.80;56882.81;5064072;28;20039;-80
2023/04/11 09:51:22;;;;;;;6.43;1.95;;;13.60;99.90;;;-144.05;37.56;56901.94;5045324;28;20079;-81
2023/04/11 09:53:48;;;;;;;6.32;1.52;;;13.10;99.90;;;-144.05;37.68;56882.81;5044809;28;20044;-79
2023/04/11 09:56:14;;;;;;;5.20;1.63;;;12.70;99.90;;;-144.05;37.70;56889.19;5058147;28;20029;-80
2023/04/11 09:58:41;;;;;;;7.95;1.85;;;12.70;99.90;;;-144.05;36.82;56872.19;5043430;28;20044;-78
2023/04/11 10:01:09;;;;;;;4.72;1.70;;;13.20;99.90;;;-144.05;35.90;56853.09;5047237;28;20104;-79
2023/04/11 10:03:38;;;;;;;6.38;1.63;;;13.80;99.10;;;-144.05;35.36;56867.94;5062598;28;20035;-82
2023/04/11 10:06:44;;;;;;;7.47;1.63;;;14.20;97.70;;;-144.05;35.54;56870.06;5044686;28;20043;-79
2023/04/11 10:09:15;;;;;;;6.68;2.20;;;13.90;97.60;;;-144.05;36.26;56865.81;5060819;28;20021;-80